createdAt,value
2018-09-12T00:00:12.615Z,16.65
2018-09-12T00:02:40.971Z,16.77
2018-09-12T00:05:09.296Z,16.66
2018-09-12T00:07:37.675Z,16.80
2018-09-12T00:10:06.094Z,16.72
2018-09-12T00:12:34.404Z,16.48
2018-09-12T00:15:02.767Z,16.49
2018-09-12T00:17:31.073Z,16.43
2018-09-12T00:19:59.478Z,16.42
2018-09-12T00:22:27.767Z,16.29
2018-09-12T00:24:56.123Z,16.24
2018-09-12T00:27:24.498Z,16.20
2018-09-12T00:29:52.885Z,16.24
2018-09-12T00:32:21.229Z,16.33
2018-09-12T00:34:49.636Z,16.21
2018-09-12T00:37:17.995Z,16.27
2018-09-12T00:39:46.323Z,16.17
2018-09-12T00:42:14.697Z,16.17
2018-09-12T00:44:43.002Z,16.10
2018-09-12T00:47:11.360Z,16.08
2018-09-12T00:49:39.787Z,16.15
2018-09-12T00:52:08.116Z,16.20
2018-09-12T00:54:36.435Z,16.12
2018-09-12T00:57:04.742Z,16.03
2018-09-12T00:59:33.141Z,16.04
2018-09-12T01:02:01.441Z,15.98
2018-09-12T01:04:29.791Z,16.09
2018-09-12T01:06:58.097Z,16.16
2018-09-12T01:09:26.434Z,16.07
2018-09-12T01:11:54.770Z,16.06
2018-09-12T01:14:23.308Z,16.12
2018-09-12T01:16:55.583Z,16.05
2018-09-12T01:19:23.937Z,16.19
2018-09-12T01:21:52.288Z,16.03
2018-09-12T01:24:20.577Z,16.09
2018-09-12T01:26:48.902Z,16.08
2018-09-12T01:29:17.333Z,15.96
2018-09-12T01:31:45.666Z,16.05
2018-09-12T01:34:14.091Z,15.97
2018-09-12T01:36:42.392Z,15.98
2018-09-12T01:39:11.114Z,16.06
2018-09-12T01:41:39.532Z,16.06
2018-09-12T01:44:07.875Z,16.12
2018-09-12T01:46:36.207Z,16.10
2018-09-12T01:49:04.514Z,16.01
2018-09-12T01:51:32.952Z,15.82
2018-09-12T01:54:01.346Z,15.97
2018-09-12T01:56:29.678Z,15.86
2018-09-12T01:58:58.121Z,15.83
2018-09-12T02:01:26.466Z,15.81
2018-09-12T02:03:54.787Z,15.77
2018-09-12T02:06:23.088Z,15.93
2018-09-12T02:08:51.461Z,16.01
2018-09-12T02:11:19.910Z,15.93
2018-09-12T02:13:48.219Z,16.05
2018-09-12T02:16:16.537Z,16.05
2018-09-12T02:18:44.889Z,15.98
2018-09-12T02:21:13.246Z,15.96
2018-09-12T02:23:41.595Z,16.01
2018-09-12T02:26:09.930Z,15.80
2018-09-12T02:28:38.286Z,15.95
2018-09-12T02:31:06.800Z,15.77
2018-09-12T02:33:35.123Z,15.80
2018-09-12T02:36:08.755Z,15.78
2018-09-12T02:38:37.168Z,15.71
2018-09-12T02:41:05.567Z,15.65
2018-09-12T02:43:33.898Z,15.62
2018-09-12T02:46:02.210Z,15.62
2018-09-12T02:48:30.534Z,15.55
2018-09-12T02:50:58.855Z,15.43
2018-09-12T02:53:27.152Z,15.37
2018-09-12T02:55:55.515Z,15.25
2018-09-12T02:58:23.818Z,15.17
2018-09-12T03:00:52.487Z,14.97
2018-09-12T03:03:21.039Z,15.08
2018-09-12T03:05:49.519Z,15.02
2018-09-12T03:08:17.868Z,14.98
2018-09-12T03:10:46.184Z,14.88
2018-09-12T03:13:14.699Z,14.88
2018-09-12T03:15:43.098Z,14.83
2018-09-12T03:18:11.603Z,14.66
2018-09-12T03:20:39.973Z,14.72
2018-09-12T03:23:08.276Z,14.53
2018-09-12T03:25:36.629Z,14.50
2018-09-12T03:28:05.269Z,14.44
2018-09-12T03:30:33.583Z,14.55
2018-09-12T03:33:02.004Z,14.59
2018-09-12T03:35:30.374Z,14.58
2018-09-12T03:37:58.691Z,14.52
2018-09-12T03:40:27.048Z,14.51
2018-09-12T03:42:55.382Z,14.44
2018-09-12T03:45:23.810Z,14.43
2018-09-12T03:47:52.165Z,14.64
2018-09-12T03:50:20.527Z,14.64
2018-09-12T03:52:48.936Z,14.51
2018-09-12T03:55:17.281Z,14.34
2018-09-12T03:57:45.754Z,14.41
2018-09-12T04:00:14.248Z,14.29
2018-09-12T04:02:42.717Z,14.23
2018-09-12T04:05:11.035Z,14.30
2018-09-12T04:07:39.443Z,14.31
2018-09-12T04:10:07.835Z,14.20
2018-09-12T04:12:36.185Z,14.25
2018-09-12T04:15:04.611Z,14.25
2018-09-12T04:17:34.952Z,14.21
2018-09-12T04:20:03.541Z,14.17
2018-09-12T04:22:32.209Z,14.13
2018-09-12T04:25:00.532Z,14.11
2018-09-12T04:27:28.816Z,14.13
2018-09-12T04:29:57.148Z,14.05
2018-09-12T04:32:26.197Z,14.04
2018-09-12T04:34:54.515Z,14.10
2018-09-12T04:37:23.104Z,14.01
2018-09-12T04:39:51.422Z,13.87
2018-09-12T04:42:19.790Z,13.82
2018-09-12T04:44:48.303Z,13.95
2018-09-12T04:47:16.754Z,13.96
2018-09-12T04:49:45.106Z,13.90
2018-09-12T04:52:13.507Z,13.92
2018-09-12T04:54:41.834Z,13.94
2018-09-12T04:57:10.158Z,13.72
2018-09-12T04:59:38.899Z,13.70
2018-09-12T05:02:07.187Z,13.77
2018-09-12T05:04:35.515Z,13.87
2018-09-12T05:07:03.869Z,13.77
2018-09-12T05:09:32.241Z,13.79
2018-09-12T05:12:00.678Z,13.82
2018-09-12T05:14:29.163Z,13.74
2018-09-12T05:16:57.549Z,13.76
2018-09-12T05:19:25.969Z,13.80
2018-09-12T05:21:54.274Z,13.77
2018-09-12T05:24:22.769Z,13.71
2018-09-12T05:26:51.420Z,13.80
2018-09-12T05:29:20.387Z,13.61
2018-09-12T05:31:49.199Z,13.72
2018-09-12T05:34:18.153Z,13.75
2018-09-12T05:36:46.743Z,13.75
2018-09-12T05:39:15.993Z,13.88
2018-09-12T05:41:44.548Z,13.96
2018-09-12T05:44:12.885Z,14.06
2018-09-12T05:46:41.273Z,14.02
2018-09-12T05:49:10.578Z,14.14
2018-09-12T05:51:38.919Z,14.47
2018-09-12T05:54:07.334Z,14.74
2018-09-12T05:56:36.163Z,15.24
2018-09-12T05:59:04.555Z,15.48
2018-09-12T06:01:32.851Z,15.88
2018-09-12T06:04:01.204Z,16.05
2018-09-12T06:06:29.605Z,16.12
2018-09-12T06:08:57.947Z,16.35
2018-09-12T06:11:26.300Z,16.39
2018-09-12T06:13:54.632Z,16.63
2018-09-12T06:16:22.939Z,16.61
2018-09-12T06:18:51.348Z,16.93
2018-09-12T06:21:19.703Z,17.02
2018-09-12T06:23:48.034Z,17.21
2018-09-12T06:26:16.657Z,17.48
2018-09-12T06:28:44.937Z,17.39
2018-09-12T06:31:13.292Z,17.34
2018-09-12T06:33:41.619Z,17.61
2018-09-12T06:36:09.916Z,17.64
2018-09-12T06:38:38.308Z,17.52
2018-09-12T06:41:07.382Z,17.40
2018-09-12T06:43:42.244Z,17.61
2018-09-12T06:46:10.557Z,17.71
2018-09-12T06:48:38.902Z,17.67
2018-09-12T06:51:07.323Z,18.15
2018-09-12T06:53:35.741Z,17.91
2018-09-12T06:56:04.260Z,17.89
2018-09-12T06:58:32.595Z,17.92
2018-09-12T07:01:00.991Z,18.27
2018-09-12T07:03:29.274Z,18.06
2018-09-12T07:05:57.585Z,18.17
2018-09-12T07:08:25.968Z,18.46
2018-09-12T07:10:54.340Z,18.60
2018-09-12T07:13:22.655Z,18.78
2018-09-12T07:15:51.261Z,18.68
2018-09-12T07:18:19.943Z,18.77
2018-09-12T07:20:48.526Z,18.80
2018-09-12T07:23:17.056Z,18.63
2018-09-12T07:25:52.191Z,18.80
2018-09-12T07:28:20.540Z,18.93
2018-09-12T07:30:48.956Z,19.09
2018-09-12T07:33:17.380Z,19.02
2018-09-12T07:35:45.810Z,19.19
2018-09-12T07:38:14.207Z,19.40
2018-09-12T07:40:42.773Z,19.35
2018-09-12T07:43:11.215Z,19.23
2018-09-12T07:45:39.648Z,19.39
2018-09-12T07:48:07.935Z,19.59
2018-09-12T07:50:36.488Z,19.39
2018-09-12T07:53:05.040Z,19.70
2018-09-12T07:55:33.460Z,19.55
2018-09-12T07:58:02.078Z,19.60
2018-09-12T08:00:30.666Z,19.73
2018-09-12T08:02:58.937Z,19.65
2018-09-12T08:05:27.306Z,19.75
2018-09-12T08:07:55.704Z,19.68
2018-09-12T08:10:24.373Z,19.92
2018-09-12T08:12:53.063Z,20.20
2018-09-12T08:15:21.439Z,20.05
2018-09-12T08:17:49.823Z,20.00
2018-09-12T08:20:18.984Z,19.98
2018-09-12T08:22:47.947Z,20.01
2018-09-12T08:25:16.525Z,20.04
2018-09-12T08:27:45.103Z,20.05
2018-09-12T08:30:14.048Z,20.29
2018-09-12T08:32:42.511Z,20.17
2018-09-12T08:35:14.758Z,20.53
2018-09-12T08:37:43.605Z,20.84
2018-09-12T08:40:12.450Z,20.91
2018-09-12T08:42:41.005Z,21.03
2018-09-12T08:45:09.394Z,21.62
2018-09-12T08:47:37.926Z,21.44
2018-09-12T08:50:07.215Z,21.72
2018-09-12T08:52:35.629Z,21.40
2018-09-12T08:55:04.002Z,21.40
2018-09-12T08:57:32.376Z,21.39
2018-09-12T09:00:00.804Z,21.51
2018-09-12T09:02:29.267Z,21.65
2018-09-12T09:04:57.661Z,21.77
2018-09-12T09:07:26.035Z,22.03
2018-09-12T09:09:54.351Z,22.44
2018-09-12T09:12:22.681Z,22.33
2018-09-12T09:14:51.015Z,22.27
2018-09-12T09:17:19.637Z,22.43
2018-09-12T09:19:47.956Z,22.29
2018-09-12T09:22:16.292Z,22.55
2018-09-12T09:24:44.666Z,22.51
2018-09-12T09:27:12.987Z,22.47
2018-09-12T09:29:41.279Z,22.48
2018-09-12T09:32:09.608Z,22.80
2018-09-12T09:34:38.572Z,22.92
2018-09-12T09:37:06.923Z,22.78
2018-09-12T09:39:35.293Z,22.85
2018-09-12T09:42:03.634Z,22.44
2018-09-12T09:44:31.969Z,22.79
2018-09-12T09:47:00.286Z,22.53
2018-09-12T09:49:28.633Z,22.87
2018-09-12T09:51:57.032Z,22.86
2018-09-12T09:54:25.915Z,23.30
2018-09-12T09:56:54.391Z,22.81
2018-09-12T09:59:22.739Z,22.85
2018-09-12T10:03:00.116Z,22.73
2018-09-12T10:05:33.678Z,23.13
2018-09-12T10:08:07.190Z,22.91
2018-09-12T10:10:35.527Z,22.79
2018-09-12T10:13:04.082Z,22.95
2018-09-12T10:15:32.407Z,23.37
2018-09-12T10:18:00.741Z,23.62
2018-09-12T10:20:29.053Z,23.42
2018-09-12T10:22:57.369Z,23.61
2018-09-12T10:25:25.647Z,23.34
2018-09-12T10:27:54.013Z,23.62
2018-09-12T10:30:22.383Z,23.99
2018-09-12T10:32:50.700Z,23.98
2018-09-12T10:35:18.991Z,24.01
2018-09-12T10:37:47.383Z,23.88
2018-09-12T10:40:15.742Z,23.85
2018-09-12T10:42:44.101Z,23.72
2018-09-12T10:45:12.452Z,23.78
2018-09-12T10:47:40.738Z,23.72
2018-09-12T10:50:09.349Z,23.71
2018-09-12T10:52:37.715Z,23.95
2018-09-12T10:55:06.099Z,23.62
2018-09-12T10:57:34.426Z,23.65
2018-09-12T11:00:02.793Z,23.88
2018-09-12T11:02:31.131Z,24.09
2018-09-12T11:04:59.431Z,24.01
2018-09-12T11:07:27.780Z,23.98
2018-09-12T11:09:56.115Z,23.59
2018-09-12T11:12:24.453Z,23.89
2018-09-12T11:14:52.768Z,24.09
2018-09-12T11:17:21.117Z,24.22
2018-09-12T11:19:49.407Z,24.22
2018-09-12T11:22:17.829Z,24.30
2018-09-12T11:24:46.476Z,24.65
2018-09-12T11:27:14.799Z,24.58
2018-09-12T11:29:43.255Z,24.53
2018-09-12T11:32:11.572Z,24.53
2018-09-12T11:34:39.933Z,24.73
2018-09-12T11:37:08.718Z,24.80
2018-09-12T11:39:37.046Z,25.25
2018-09-12T11:42:05.387Z,25.00
2018-09-12T11:44:33.747Z,24.87
2018-09-12T11:47:02.112Z,24.94
2018-09-12T11:49:30.483Z,25.28
2018-09-12T11:51:58.811Z,25.17
2018-09-12T11:54:27.427Z,24.93
2018-09-12T11:56:55.829Z,24.99
2018-09-12T11:59:24.180Z,25.29
2018-09-12T12:01:52.556Z,25.40
2018-09-12T12:04:21.051Z,25.25
2018-09-12T12:06:49.450Z,25.00
2018-09-12T12:09:17.847Z,25.11
2018-09-12T12:11:46.212Z,25.14
2018-09-12T12:14:14.546Z,25.13
2018-09-12T12:16:42.962Z,25.14
2018-09-12T12:19:11.203Z,25.27
2018-09-12T12:21:39.521Z,25.36
2018-09-12T12:24:07.887Z,25.30
2018-09-12T12:26:36.242Z,25.30
2018-09-12T12:29:04.643Z,25.11
2018-09-12T12:31:32.990Z,24.89
2018-09-12T12:34:01.319Z,24.85
2018-09-12T12:36:29.627Z,25.07
2018-09-12T12:38:57.971Z,25.72
2018-09-12T12:41:26.353Z,25.39
2018-09-12T12:43:54.619Z,25.35
2018-09-12T12:46:22.927Z,25.59
2018-09-12T12:48:51.330Z,25.74
2018-09-12T12:51:19.674Z,26.02
2018-09-12T12:53:48.012Z,25.87
2018-09-12T12:56:16.393Z,25.64
2018-09-12T12:58:44.712Z,25.56
2018-09-12T13:01:13.088Z,25.91
2018-09-12T13:03:41.502Z,25.64
2018-09-12T13:06:09.875Z,25.88
2018-09-12T13:08:38.267Z,25.90
2018-09-12T13:11:06.970Z,26.13
2018-09-12T13:13:35.320Z,25.77
2018-09-12T13:16:03.676Z,25.96
2018-09-12T13:18:32.040Z,25.77
2018-09-12T13:21:01.078Z,26.13
2018-09-12T13:23:29.747Z,26.16
2018-09-12T13:25:58.112Z,25.58
2018-09-12T13:28:26.469Z,25.64
2018-09-12T13:30:54.833Z,26.15
2018-09-12T13:33:23.214Z,26.36
2018-09-12T13:35:51.587Z,25.94
2018-09-12T13:38:19.871Z,25.68
2018-09-12T13:40:48.168Z,25.33
2018-09-12T13:43:16.539Z,25.26
2018-09-12T13:45:44.963Z,25.35
2018-09-12T13:48:13.415Z,25.44
2018-09-12T13:50:41.786Z,25.70
2018-09-12T13:53:10.191Z,25.57
2018-09-12T13:55:38.512Z,25.34
2018-09-12T13:58:06.882Z,25.27
2018-09-12T14:00:35.206Z,25.33
2018-09-12T14:03:04.070Z,25.65
2018-09-12T14:05:33.641Z,25.66
2018-09-12T14:08:02.328Z,25.75
2018-09-12T14:10:30.740Z,25.69
2018-09-12T14:12:59.130Z,25.77
2018-09-12T14:15:27.645Z,25.69
2018-09-12T14:17:55.988Z,25.50
2018-09-12T14:20:24.326Z,25.61
2018-09-12T14:22:52.778Z,25.53
2018-09-12T14:25:21.163Z,25.55
2018-09-12T14:27:49.470Z,25.55
2018-09-12T14:30:17.807Z,25.43
2018-09-12T14:32:46.196Z,25.52
2018-09-12T14:35:14.581Z,25.59
2018-09-12T14:37:43.085Z,25.33
2018-09-12T14:40:11.405Z,25.46
2018-09-12T14:42:39.783Z,25.46
2018-09-12T14:45:08.557Z,25.81
2018-09-12T14:47:36.914Z,25.77
2018-09-12T14:50:05.235Z,25.53
2018-09-12T14:52:33.662Z,25.66
2018-09-12T14:55:02.474Z,25.76
2018-09-12T14:57:30.924Z,25.84
2018-09-12T14:59:59.353Z,25.65
2018-09-12T15:02:27.742Z,25.71
2018-09-12T15:04:56.109Z,25.40
2018-09-12T15:07:24.454Z,25.32
2018-09-12T15:09:52.826Z,25.37
2018-09-12T15:12:21.267Z,25.24
2018-09-12T15:14:49.643Z,24.80
2018-09-12T15:17:18.027Z,24.53
2018-09-12T15:19:46.427Z,24.29
2018-09-12T15:22:14.716Z,23.77
2018-09-12T15:24:43.033Z,23.41
2018-09-12T15:27:11.375Z,23.32
2018-09-12T15:29:39.835Z,23.32
2018-09-12T15:32:08.152Z,23.06
2018-09-12T15:34:36.480Z,22.98
2018-09-12T15:37:04.831Z,23.07
2018-09-12T15:39:33.269Z,23.05
2018-09-12T15:42:01.715Z,22.57
2018-09-12T15:44:31.453Z,22.34
2018-09-12T15:46:59.974Z,22.05
2018-09-12T15:49:28.280Z,21.99
2018-09-12T15:51:56.583Z,21.61
2018-09-12T15:54:24.989Z,21.34
2018-09-12T15:56:53.377Z,21.13
2018-09-12T15:59:22.096Z,21.11
2018-09-12T16:01:50.467Z,20.71
2018-09-12T16:04:19.184Z,20.76
2018-09-12T16:06:48.051Z,20.31
2018-09-12T16:09:16.447Z,19.83
2018-09-12T16:11:44.814Z,19.74
2018-09-12T16:14:13.359Z,19.65
2018-09-12T16:16:42.005Z,19.64
2018-09-12T16:19:10.446Z,19.45
2018-09-12T16:21:38.797Z,19.23
2018-09-12T16:24:07.263Z,19.17
2018-09-12T16:26:35.846Z,19.03
2018-09-12T16:29:04.239Z,19.00
2018-09-12T16:31:32.703Z,18.96
2018-09-12T16:34:01.083Z,19.01
2018-09-12T16:36:29.525Z,18.79
2018-09-12T16:38:57.971Z,18.57
2018-09-12T16:41:26.271Z,18.69
2018-09-12T16:43:55.473Z,18.72
2018-09-12T16:46:24.615Z,18.59
2018-09-12T16:49:22.514Z,18.49
2018-09-12T16:51:51.734Z,18.40
2018-09-12T16:54:20.049Z,18.38
2018-09-12T16:56:48.605Z,18.40
2018-09-12T16:59:16.895Z,18.25
2018-09-12T17:01:45.215Z,18.46
2018-09-12T17:04:20.076Z,18.23
2018-09-12T17:06:48.408Z,17.90
2018-09-12T17:09:16.802Z,18.09
2018-09-12T17:11:45.136Z,17.93
2018-09-12T17:14:13.537Z,17.90
2018-09-12T17:16:41.969Z,17.60
2018-09-12T17:19:10.415Z,17.62
2018-09-12T17:21:38.772Z,17.45
2018-09-12T17:24:07.094Z,17.30
2018-09-12T17:26:35.508Z,17.58
2018-09-12T17:29:03.856Z,17.28
2018-09-12T17:31:32.255Z,17.28
2018-09-12T17:34:00.703Z,17.22
2018-09-12T17:36:29.137Z,17.29
2018-09-12T17:38:57.573Z,17.11
2018-09-12T17:41:26.095Z,17.30
2018-09-12T17:43:54.463Z,16.89
2018-09-12T17:46:22.831Z,17.00
2018-09-12T17:48:51.336Z,17.04
2018-09-12T17:51:19.709Z,17.02
2018-09-12T17:53:50.546Z,17.11
2018-09-12T17:56:18.873Z,16.93
2018-09-12T17:58:49.032Z,16.90
2018-09-12T18:01:26.813Z,17.09
2018-09-12T18:03:56.810Z,16.88
2018-09-12T18:06:26.168Z,16.82
2018-09-12T18:08:55.498Z,17.01
2018-09-12T18:11:24.577Z,16.94
2018-09-12T18:14:00.265Z,17.01
2018-09-12T18:16:45.316Z,17.14
2018-09-12T18:19:14.387Z,16.93
2018-09-12T18:21:43.064Z,17.01
2018-09-12T18:24:11.526Z,17.11
2018-09-12T18:26:40.108Z,17.00
2018-09-12T18:29:09.058Z,17.19
2018-09-12T18:31:37.657Z,16.97
2018-09-12T18:34:06.094Z,17.07
2018-09-12T18:36:34.547Z,17.04
2018-09-12T18:39:02.862Z,16.91
2018-09-12T18:41:31.810Z,16.79
2018-09-12T18:44:00.291Z,16.87
2018-09-12T18:46:28.660Z,16.55
2018-09-12T18:48:57.997Z,16.49
2018-09-12T18:51:26.410Z,16.78
2018-09-12T18:53:54.792Z,16.70
2018-09-12T18:56:23.544Z,16.75
2018-09-12T18:58:51.917Z,16.45
2018-09-12T19:01:20.223Z,16.29
2018-09-12T19:03:48.877Z,16.16
2018-09-12T19:06:17.255Z,16.11
2018-09-12T19:08:45.607Z,16.24
2018-09-12T19:11:14.410Z,15.97
2018-09-12T19:13:42.760Z,15.94
2018-09-12T19:16:11.293Z,15.99
2018-09-12T19:18:39.763Z,15.91
2018-09-12T19:21:09.089Z,15.94
2018-09-12T19:23:37.534Z,15.84
2018-09-12T19:26:05.880Z,15.80
2018-09-12T19:28:34.355Z,15.67
2018-09-12T19:31:02.896Z,15.62
2018-09-12T19:33:31.288Z,15.66
2018-09-12T19:36:00.176Z,15.63
2018-09-12T19:38:28.630Z,15.56
2018-09-12T19:40:57.074Z,15.57
2018-09-12T19:43:25.564Z,15.51
2018-09-12T19:45:54.061Z,15.62
2018-09-12T19:48:22.516Z,15.44
2018-09-12T19:50:51.033Z,15.44
2018-09-12T19:53:19.415Z,15.47
2018-09-12T19:55:47.895Z,15.48
2018-09-12T19:58:16.378Z,15.47
2018-09-12T20:00:44.798Z,15.35
2018-09-12T20:03:13.198Z,15.40
2018-09-12T20:05:41.677Z,15.28
2018-09-12T20:08:10.288Z,15.48
2018-09-12T20:10:38.655Z,15.33
2018-09-12T20:13:07.199Z,15.42
2018-09-12T20:15:35.605Z,15.40
2018-09-12T20:18:04.094Z,15.40
2018-09-12T20:20:32.461Z,15.42
2018-09-12T20:23:00.862Z,15.31
2018-09-12T20:25:29.247Z,15.42
2018-09-12T20:27:57.563Z,15.41
2018-09-12T20:30:26.097Z,15.40
2018-09-12T20:32:54.470Z,15.50
2018-09-12T20:35:22.816Z,15.23
2018-09-12T20:37:51.146Z,15.36
2018-09-12T20:40:19.547Z,15.36
2018-09-12T20:42:47.878Z,15.16
2018-09-12T20:45:16.229Z,15.30
2018-09-12T20:47:44.596Z,15.18
2018-09-12T20:50:12.920Z,15.14
2018-09-12T20:52:41.271Z,15.09
2018-09-12T20:55:09.633Z,15.26
2018-09-12T20:57:37.984Z,15.31
2018-09-12T21:00:06.746Z,15.32
2018-09-12T21:02:35.092Z,15.34
2018-09-12T21:05:03.444Z,15.21
2018-09-12T21:07:32.105Z,15.39
2018-09-12T21:10:01.463Z,15.26
2018-09-12T21:12:29.876Z,15.51
2018-09-12T21:14:58.230Z,15.60
2018-09-12T21:17:26.561Z,15.52
2018-09-12T21:19:54.958Z,15.54
2018-09-12T21:22:25.424Z,15.34
2018-09-12T21:24:53.991Z,15.33
2018-09-12T21:27:22.392Z,15.54
2018-09-12T21:29:50.779Z,15.47
2018-09-12T21:32:19.121Z,15.54
2018-09-12T21:34:47.508Z,15.57
2018-09-12T21:37:15.887Z,15.67
2018-09-12T21:39:44.249Z,15.62
2018-09-12T21:42:12.754Z,15.53
2018-09-12T21:44:41.136Z,15.39
2018-09-12T21:47:09.514Z,15.38
2018-09-12T21:49:37.953Z,15.35
2018-09-12T21:52:06.333Z,15.55
2018-09-12T21:54:34.661Z,15.59
2018-09-12T21:57:03.004Z,15.46
2018-09-12T21:59:31.334Z,15.40
2018-09-12T22:01:59.788Z,15.60
2018-09-12T22:04:28.125Z,15.71
2018-09-12T22:06:56.731Z,15.47
2018-09-12T22:09:25.172Z,15.70
2018-09-12T22:11:53.495Z,15.25
2018-09-12T22:14:21.806Z,15.29
2018-09-12T22:16:50.246Z,15.40
2018-09-12T22:19:18.619Z,15.16
2018-09-12T22:21:47.114Z,15.16
2018-09-12T22:24:15.454Z,15.13
2018-09-12T22:26:43.821Z,15.17
2018-09-12T22:29:12.177Z,15.28
2018-09-12T22:31:40.494Z,15.37
2018-09-12T22:34:08.863Z,15.23
2018-09-12T22:36:37.443Z,15.30
2018-09-12T22:39:08.968Z,15.20
2018-09-12T22:41:37.387Z,15.32
2018-09-12T22:44:05.837Z,15.52
2018-09-12T22:46:34.172Z,15.66
2018-09-12T22:49:02.496Z,15.54
2018-09-12T22:51:30.813Z,15.57
2018-09-12T22:53:59.112Z,15.27
2018-09-12T22:56:27.441Z,15.31
2018-09-12T22:58:55.815Z,15.28
2018-09-12T23:01:24.303Z,15.26
2018-09-12T23:03:52.744Z,15.18
2018-09-12T23:06:21.048Z,15.29
2018-09-12T23:08:49.463Z,15.32
2018-09-12T23:11:17.774Z,15.12
2018-09-12T23:13:46.179Z,15.20
2018-09-12T23:16:14.543Z,15.12
2018-09-12T23:18:42.906Z,15.13
2018-09-12T23:21:11.328Z,15.12
2018-09-12T23:23:39.667Z,15.32
2018-09-12T23:26:08.142Z,15.38
2018-09-12T23:28:36.578Z,15.18
2018-09-12T23:31:04.939Z,15.24
2018-09-12T23:33:33.288Z,15.33
2018-09-12T23:36:01.707Z,15.33
2018-09-12T23:38:30.080Z,15.36
2018-09-12T23:40:58.434Z,15.31
2018-09-12T23:43:26.863Z,15.28
2018-09-12T23:45:55.345Z,15.33
2018-09-12T23:48:23.572Z,15.36
2018-09-12T23:50:51.867Z,15.28
2018-09-12T23:53:20.225Z,15.39
2018-09-12T23:55:48.561Z,15.42
2018-09-12T23:58:16.947Z,15.42
